sensor_id;sensor_type;location;lat;lon;timestamp;P1;durP1;ratioP1;P2;durP2;ratioP2
8632;SDS011;4354;49.832;10.746;2023-02-28T00:01:14;12.00;;;7.63;;
8632;SDS011;4354;49.832;10.746;2023-02-28T00:03:41;13.23;;;7.70;;
8632;SDS011;4354;49.832;10.746;2023-02-28T00:06:09;15.23;;;8.20;;
8632;SDS011;4354;49.832;10.746;2023-02-28T00:08:36;12.53;;;7.33;;
8632;SDS011;4354;49.832;10.746;2023-02-28T00:11:08;10.27;;;7.30;;
8632;SDS011;4354;49.832;10.746;2023-02-28T00:13:38;7.97;;;6.27;;
8632;SDS011;4354;49.832;10.746;2023-02-28T00:16:08;9.90;;;6.40;;
8632;SDS011;4354;49.832;10.746;2023-02-28T00:18:36;8.43;;;5.40;;
8632;SDS011;4354;49.832;10.746;2023-02-28T00:21:04;7.80;;;5.77;;
8632;SDS011;4354;49.832;10.746;2023-02-28T00:23:31;8.20;;;5.57;;
8632;SDS011;4354;49.832;10.746;2023-02-28T00:25:58;7.13;;;6.23;;
8632;SDS011;4354;49.832;10.746;2023-02-28T00:28:25;8.30;;;5.97;;
8632;SDS011;4354;49.832;10.746;2023-02-28T00:30:52;7.33;;;6.33;;
8632;SDS011;4354;49.832;10.746;2023-02-28T00:33:19;6.10;;;5.03;;
8632;SDS011;4354;49.832;10.746;2023-02-28T00:35:46;8.27;;;5.83;;
8632;SDS011;4354;49.832;10.746;2023-02-28T00:38:13;7.77;;;5.60;;
8632;SDS011;4354;49.832;10.746;2023-02-28T00:40:40;7.77;;;5.47;;
8632;SDS011;4354;49.832;10.746;2023-02-28T00:43:07;6.37;;;5.53;;
8632;SDS011;4354;49.832;10.746;2023-02-28T00:45:34;8.13;;;5.80;;
8632;SDS011;4354;49.832;10.746;2023-02-28T00:48:01;7.90;;;5.50;;
8632;SDS011;4354;49.832;10.746;2023-02-28T00:50:28;5.73;;;4.57;;
8632;SDS011;4354;49.832;10.746;2023-02-28T00:52:54;9.10;;;5.43;;
8632;SDS011;4354;49.832;10.746;2023-02-28T00:55:21;9.37;;;5.57;;
8632;SDS011;4354;49.832;10.746;2023-02-28T00:57:48;7.83;;;5.57;;
8632;SDS011;4354;49.832;10.746;2023-02-28T01:00:15;7.57;;;5.83;;
8632;SDS011;4354;49.832;10.746;2023-02-28T01:02:42;8.47;;;5.87;;
8632;SDS011;4354;49.832;10.746;2023-02-28T01:05:08;7.30;;;5.70;;
8632;SDS011;4354;49.832;10.746;2023-02-28T01:07:35;7.37;;;5.90;;
8632;SDS011;4354;49.832;10.746;2023-02-28T01:10:02;7.10;;;5.47;;
8632;SDS011;4354;49.832;10.746;2023-02-28T01:12:29;7.63;;;5.87;;
8632;SDS011;4354;49.832;10.746;2023-02-28T01:14:57;7.37;;;5.80;;
8632;SDS011;4354;49.832;10.746;2023-02-28T01:17:24;8.03;;;5.97;;
8632;SDS011;4354;49.832;10.746;2023-02-28T01:19:52;7.10;;;5.40;;
8632;SDS011;4354;49.832;10.746;2023-02-28T01:22:20;6.53;;;5.50;;
8632;SDS011;4354;49.832;10.746;2023-02-28T01:24:47;6.80;;;5.50;;
8632;SDS011;4354;49.832;10.746;2023-02-28T01:27:14;7.93;;;5.77;;
8632;SDS011;4354;49.832;10.746;2023-02-28T01:29:40;7.13;;;5.63;;
8632;SDS011;4354;49.832;10.746;2023-02-28T01:32:07;6.67;;;5.40;;
8632;SDS011;4354;49.832;10.746;2023-02-28T01:34:34;7.07;;;5.80;;
8632;SDS011;4354;49.832;10.746;2023-02-28T01:37:01;6.27;;;5.63;;
8632;SDS011;4354;49.832;10.746;2023-02-28T01:39:29;6.90;;;5.63;;
8632;SDS011;4354;49.832;10.746;2023-02-28T01:41:56;6.90;;;5.17;;
8632;SDS011;4354;49.832;10.746;2023-02-28T01:47:39;11.13;;;7.97;;
8632;SDS011;4354;49.832;10.746;2023-02-28T01:50:16;7.00;;;5.80;;
8632;SDS011;4354;49.832;10.746;2023-02-28T01:52:47;7.73;;;5.80;;
8632;SDS011;4354;49.832;10.746;2023-02-28T01:55:15;6.97;;;5.10;;
8632;SDS011;4354;49.832;10.746;2023-02-28T01:57:48;10.53;;;6.20;;
8632;SDS011;4354;49.832;10.746;2023-02-28T02:00:20;8.53;;;5.50;;
8632;SDS011;4354;49.832;10.746;2023-02-28T02:02:51;7.17;;;5.57;;
8632;SDS011;4354;49.832;10.746;2023-02-28T02:05:22;9.90;;;6.27;;
8632;SDS011;4354;49.832;10.746;2023-02-28T02:07:52;7.00;;;5.17;;
8632;SDS011;4354;49.832;10.746;2023-02-28T02:10:41;7.80;;;5.40;;
8632;SDS011;4354;49.832;10.746;2023-02-28T02:18:43;9.90;;;5.67;;
8632;SDS011;4354;49.832;10.746;2023-02-28T02:32:27;6.77;;;5.20;;
8632;SDS011;4354;49.832;10.746;2023-02-28T02:38:10;6.90;;;5.53;;
8632;SDS011;4354;49.832;10.746;2023-02-28T02:43:58;7.67;;;5.37;;
8632;SDS011;4354;49.832;10.746;2023-02-28T02:46:34;10.33;;;5.50;;
8632;SDS011;4354;49.832;10.746;2023-02-28T02:49:05;6.73;;;5.13;;
8632;SDS011;4354;49.832;10.746;2023-02-28T02:51:52;7.30;;;5.20;;
8632;SDS011;4354;49.832;10.746;2023-02-28T02:54:22;6.87;;;5.30;;
8632;SDS011;4354;49.832;10.746;2023-02-28T02:56:55;6.67;;;5.43;;
8632;SDS011;4354;49.832;10.746;2023-02-28T02:59:25;8.03;;;5.40;;
8632;SDS011;4354;49.832;10.746;2023-02-28T03:01:55;9.50;;;5.63;;
8632;SDS011;4354;49.832;10.746;2023-02-28T03:04:31;8.20;;;5.37;;
8632;SDS011;4354;49.832;10.746;2023-02-28T03:07:04;7.43;;;5.63;;
8632;SDS011;4354;49.832;10.746;2023-02-28T03:09:32;8.30;;;5.67;;
8632;SDS011;4354;49.832;10.746;2023-02-28T03:12:00;8.70;;;5.67;;
8632;SDS011;4354;49.832;10.746;2023-02-28T03:14:33;9.03;;;5.53;;
8632;SDS011;4354;49.832;10.746;2023-02-28T03:20:10;5.93;;;4.33;;
8632;SDS011;4354;49.832;10.746;2023-02-28T03:34:10;6.10;;;5.17;;
8632;SDS011;4354;49.832;10.746;2023-02-28T03:36:59;6.53;;;5.20;;
8632;SDS011;4354;49.832;10.746;2023-02-28T03:39:34;7.13;;;6.10;;
8632;SDS011;4354;49.832;10.746;2023-02-28T03:42:09;8.13;;;5.77;;
8632;SDS011;4354;49.832;10.746;2023-02-28T03:44:42;8.37;;;6.00;;
8632;SDS011;4354;49.832;10.746;2023-02-28T03:47:37;8.03;;;5.97;;
8632;SDS011;4354;49.832;10.746;2023-02-28T03:50:42;8.23;;;5.80;;
8632;SDS011;4354;49.832;10.746;2023-02-28T03:55:45;8.67;;;5.90;;
8632;SDS011;4354;49.832;10.746;2023-02-28T03:58:21;8.50;;;6.40;;
8632;SDS011;4354;49.832;10.746;2023-02-28T04:00:57;8.43;;;6.07;;
8632;SDS011;4354;49.832;10.746;2023-02-28T04:03:36;6.73;;;5.33;;
8632;SDS011;4354;49.832;10.746;2023-02-28T04:06:04;7.83;;;5.47;;
8632;SDS011;4354;49.832;10.746;2023-02-28T04:08:33;8.30;;;6.57;;
8632;SDS011;4354;49.832;10.746;2023-02-28T04:11:01;7.83;;;5.90;;
8632;SDS011;4354;49.832;10.746;2023-02-28T04:13:32;9.03;;;6.33;;
8632;SDS011;4354;49.832;10.746;2023-02-28T04:15:59;7.97;;;6.00;;
8632;SDS011;4354;49.832;10.746;2023-02-28T04:18:26;8.30;;;6.03;;
8632;SDS011;4354;49.832;10.746;2023-02-28T04:20:53;8.80;;;6.47;;
8632;SDS011;4354;49.832;10.746;2023-02-28T04:23:19;9.50;;;6.47;;
8632;SDS011;4354;49.832;10.746;2023-02-28T04:25:46;9.67;;;6.60;;
8632;SDS011;4354;49.832;10.746;2023-02-28T04:28:13;8.27;;;6.07;;
8632;SDS011;4354;49.832;10.746;2023-02-28T04:30:40;8.63;;;5.83;;
8632;SDS011;4354;49.832;10.746;2023-02-28T04:33:06;9.10;;;6.13;;
8632;SDS011;4354;49.832;10.746;2023-02-28T04:35:33;8.37;;;6.40;;
8632;SDS011;4354;49.832;10.746;2023-02-28T04:38:00;9.07;;;7.20;;
8632;SDS011;4354;49.832;10.746;2023-02-28T04:40:27;10.00;;;6.47;;
8632;SDS011;4354;49.832;10.746;2023-02-28T04:42:53;8.77;;;6.93;;
8632;SDS011;4354;49.832;10.746;2023-02-28T04:45:20;7.60;;;6.03;;
8632;SDS011;4354;49.832;10.746;2023-02-28T04:47:47;10.47;;;6.50;;
8632;SDS011;4354;49.832;10.746;2023-02-28T04:50:14;8.93;;;6.60;;
8632;SDS011;4354;49.832;10.746;2023-02-28T04:52:41;9.67;;;6.90;;
8632;SDS011;4354;49.832;10.746;2023-02-28T04:55:07;9.30;;;6.53;;
8632;SDS011;4354;49.832;10.746;2023-02-28T04:57:34;11.37;;;6.43;;
8632;SDS011;4354;49.832;10.746;2023-02-28T05:00:01;9.57;;;6.53;;
8632;SDS011;4354;49.832;10.746;2023-02-28T05:02:33;10.27;;;7.20;;
8632;SDS011;4354;49.832;10.746;2023-02-28T05:05:01;8.67;;;6.80;;
8632;SDS011;4354;49.832;10.746;2023-02-28T05:07:28;9.93;;;7.37;;
8632;SDS011;4354;49.832;10.746;2023-02-28T05:09:55;9.37;;;7.70;;
8632;SDS011;4354;49.832;10.746;2023-02-28T05:12:22;10.50;;;7.80;;
8632;SDS011;4354;49.832;10.746;2023-02-28T05:14:48;9.57;;;6.93;;
8632;SDS011;4354;49.832;10.746;2023-02-28T05:17:15;10.37;;;7.63;;
8632;SDS011;4354;49.832;10.746;2023-02-28T05:19:42;11.13;;;7.20;;
8632;SDS011;4354;49.832;10.746;2023-02-28T05:22:13;10.67;;;7.10;;
8632;SDS011;4354;49.832;10.746;2023-02-28T05:24:43;9.23;;;7.40;;
8632;SDS011;4354;49.832;10.746;2023-02-28T05:27:09;10.73;;;7.70;;
8632;SDS011;4354;49.832;10.746;2023-02-28T05:29:36;10.43;;;7.83;;
8632;SDS011;4354;49.832;10.746;2023-02-28T05:32:09;11.43;;;9.63;;
8632;SDS011;4354;49.832;10.746;2023-02-28T05:34:39;10.77;;;7.70;;
8632;SDS011;4354;49.832;10.746;2023-02-28T05:37:11;10.50;;;7.57;;
8632;SDS011;4354;49.832;10.746;2023-02-28T05:39:39;12.30;;;8.10;;
8632;SDS011;4354;49.832;10.746;2023-02-28T05:42:06;11.53;;;7.90;;
8632;SDS011;4354;49.832;10.746;2023-02-28T05:44:33;10.47;;;6.97;;
8632;SDS011;4354;49.832;10.746;2023-02-28T05:47:00;12.40;;;7.90;;
8632;SDS011;4354;49.832;10.746;2023-02-28T05:49:26;11.03;;;7.93;;
8632;SDS011;4354;49.832;10.746;2023-02-28T05:51:53;11.20;;;8.37;;
8632;SDS011;4354;49.832;10.746;2023-02-28T05:54:20;9.93;;;7.90;;
8632;SDS011;4354;49.832;10.746;2023-02-28T05:56:47;12.97;;;8.20;;
8632;SDS011;4354;49.832;10.746;2023-02-28T05:59:13;15.63;;;8.47;;
8632;SDS011;4354;49.832;10.746;2023-02-28T06:01:41;12.80;;;7.97;;
8632;SDS011;4354;49.832;10.746;2023-02-28T06:04:15;12.30;;;8.93;;
8632;SDS011;4354;49.832;10.746;2023-02-28T06:06:56;11.30;;;8.13;;
8632;SDS011;4354;49.832;10.746;2023-02-28T06:09:23;11.87;;;8.07;;
8632;SDS011;4354;49.832;10.746;2023-02-28T06:11:51;10.57;;;7.80;;
8632;SDS011;4354;49.832;10.746;2023-02-28T06:14:18;12.30;;;7.73;;
8632;SDS011;4354;49.832;10.746;2023-02-28T06:16:46;9.97;;;7.10;;
8632;SDS011;4354;49.832;10.746;2023-02-28T06:19:13;9.83;;;7.30;;
8632;SDS011;4354;49.832;10.746;2023-02-28T06:21:41;10.87;;;7.33;;
8632;SDS011;4354;49.832;10.746;2023-02-28T06:24:08;9.47;;;7.50;;
8632;SDS011;4354;49.832;10.746;2023-02-28T06:26:35;10.27;;;7.77;;
8632;SDS011;4354;49.832;10.746;2023-02-28T06:29:02;16.30;;;9.33;;
8632;SDS011;4354;49.832;10.746;2023-02-28T06:31:29;11.60;;;8.30;;
8632;SDS011;4354;49.832;10.746;2023-02-28T06:33:57;11.27;;;8.10;;
8632;SDS011;4354;49.832;10.746;2023-02-28T06:36:24;9.70;;;7.40;;
8632;SDS011;4354;49.832;10.746;2023-02-28T06:38:50;11.53;;;7.90;;
8632;SDS011;4354;49.832;10.746;2023-02-28T06:41:24;10.60;;;7.87;;
8632;SDS011;4354;49.832;10.746;2023-02-28T06:43:53;10.13;;;7.77;;
8632;SDS011;4354;49.832;10.746;2023-02-28T06:46:19;10.80;;;8.00;;
8632;SDS011;4354;49.832;10.746;2023-02-28T06:48:46;9.87;;;7.47;;
8632;SDS011;4354;49.832;10.746;2023-02-28T06:51:14;10.23;;;7.57;;
8632;SDS011;4354;49.832;10.746;2023-02-28T06:53:43;11.60;;;8.07;;
8632;SDS011;4354;49.832;10.746;2023-02-28T06:56:11;12.67;;;8.37;;
8632;SDS011;4354;49.832;10.746;2023-02-28T06:58:41;10.67;;;8.23;;
8632;SDS011;4354;49.832;10.746;2023-02-28T07:01:08;9.03;;;7.00;;
8632;SDS011;4354;49.832;10.746;2023-02-28T07:03:36;9.53;;;7.60;;
8632;SDS011;4354;49.832;10.746;2023-02-28T07:06:04;10.40;;;7.97;;
8632;SDS011;4354;49.832;10.746;2023-02-28T07:08:31;11.30;;;8.40;;
8632;SDS011;4354;49.832;10.746;2023-02-28T07:10:59;10.13;;;7.87;;
8632;SDS011;4354;49.832;10.746;2023-02-28T07:13:25;8.63;;;7.73;;
8632;SDS011;4354;49.832;10.746;2023-02-28T07:15:56;10.37;;;7.97;;
8632;SDS011;4354;49.832;10.746;2023-02-28T07:18:24;11.40;;;8.07;;
8632;SDS011;4354;49.832;10.746;2023-02-28T07:20:51;8.93;;;7.77;;
8632;SDS011;4354;49.832;10.746;2023-02-28T07:23:18;10.07;;;8.00;;
8632;SDS011;4354;49.832;10.746;2023-02-28T07:25:46;10.90;;;8.50;;
8632;SDS011;4354;49.832;10.746;2023-02-28T07:28:16;9.67;;;7.17;;
8632;SDS011;4354;49.832;10.746;2023-02-28T07:30:43;10.47;;;7.87;;
8632;SDS011;4354;49.832;10.746;2023-02-28T07:33:10;10.40;;;7.57;;
8632;SDS011;4354;49.832;10.746;2023-02-28T07:35:36;10.50;;;8.30;;
8632;SDS011;4354;49.832;10.746;2023-02-28T07:38:03;10.33;;;8.13;;
8632;SDS011;4354;49.832;10.746;2023-02-28T07:40:30;10.27;;;7.83;;
8632;SDS011;4354;49.832;10.746;2023-02-28T07:42:58;10.30;;;7.83;;
8632;SDS011;4354;49.832;10.746;2023-02-28T07:45:27;11.23;;;7.67;;
8632;SDS011;4354;49.832;10.746;2023-02-28T07:48:00;9.67;;;7.10;;
8632;SDS011;4354;49.832;10.746;2023-02-28T07:50:27;8.23;;;7.30;;
8632;SDS011;4354;49.832;10.746;2023-02-28T07:52:57;8.13;;;7.33;;
8632;SDS011;4354;49.832;10.746;2023-02-28T07:55:25;8.03;;;7.17;;
8632;SDS011;4354;49.832;10.746;2023-02-28T07:57:51;8.37;;;7.33;;
8632;SDS011;4354;49.832;10.746;2023-02-28T08:00:18;8.03;;;6.57;;
8632;SDS011;4354;49.832;10.746;2023-02-28T08:02:45;8.40;;;6.60;;
8632;SDS011;4354;49.832;10.746;2023-02-28T08:05:12;8.97;;;6.87;;
8632;SDS011;4354;49.832;10.746;2023-02-28T08:07:39;8.13;;;7.00;;
8632;SDS011;4354;49.832;10.746;2023-02-28T08:10:06;9.77;;;7.63;;
8632;SDS011;4354;49.832;10.746;2023-02-28T08:12:33;8.30;;;7.20;;
8632;SDS011;4354;49.832;10.746;2023-02-28T08:15:00;8.23;;;6.73;;
8632;SDS011;4354;49.832;10.746;2023-02-28T08:17:26;8.87;;;7.17;;
8632;SDS011;4354;49.832;10.746;2023-02-28T08:19:53;8.70;;;6.80;;
8632;SDS011;4354;49.832;10.746;2023-02-28T08:22:20;7.13;;;6.43;;
8632;SDS011;4354;49.832;10.746;2023-02-28T08:24:47;9.30;;;7.07;;
8632;SDS011;4354;49.832;10.746;2023-02-28T08:27:14;7.63;;;6.57;;
8632;SDS011;4354;49.832;10.746;2023-02-28T08:29:43;9.40;;;7.73;;
8632;SDS011;4354;49.832;10.746;2023-02-28T08:32:10;8.63;;;7.03;;
8632;SDS011;4354;49.832;10.746;2023-02-28T08:34:53;7.70;;;6.90;;
8632;SDS011;4354;49.832;10.746;2023-02-28T08:37:20;9.03;;;6.57;;
8632;SDS011;4354;49.832;10.746;2023-02-28T08:39:47;7.43;;;6.40;;
8632;SDS011;4354;49.832;10.746;2023-02-28T08:42:14;6.93;;;6.23;;
8632;SDS011;4354;49.832;10.746;2023-02-28T08:44:41;6.73;;;6.03;;
8632;SDS011;4354;49.832;10.746;2023-02-28T08:47:07;8.07;;;6.47;;
8632;SDS011;4354;49.832;10.746;2023-02-28T08:49:34;6.90;;;5.53;;
8632;SDS011;4354;49.832;10.746;2023-02-28T08:52:01;6.67;;;5.93;;
8632;SDS011;4354;49.832;10.746;2023-02-28T08:54:28;7.17;;;5.73;;
8632;SDS011;4354;49.832;10.746;2023-02-28T08:56:57;8.60;;;6.17;;
8632;SDS011;4354;49.832;10.746;2023-02-28T08:59:24;11.18;;;8.82;;
8632;SDS011;4354;49.832;10.746;2023-02-28T09:01:51;6.85;;;5.72;;
8632;SDS011;4354;49.832;10.746;2023-02-28T09:04:17;7.38;;;6.20;;
8632;SDS011;4354;49.832;10.746;2023-02-28T09:06:46;8.30;;;6.07;;
8632;SDS011;4354;49.832;10.746;2023-02-28T09:09:15;8.48;;;6.10;;
8632;SDS011;4354;49.832;10.746;2023-02-28T09:11:42;6.30;;;5.68;;
8632;SDS011;4354;49.832;10.746;2023-02-28T09:14:08;6.18;;;5.47;;
8632;SDS011;4354;49.832;10.746;2023-02-28T09:16:35;6.55;;;5.85;;
8632;SDS011;4354;49.832;10.746;2023-02-28T09:19:03;8.13;;;6.40;;
8632;SDS011;4354;49.832;10.746;2023-02-28T09:21:29;7.88;;;6.72;;
8632;SDS011;4354;49.832;10.746;2023-02-28T09:23:56;7.47;;;6.30;;
8632;SDS011;4354;49.832;10.746;2023-02-28T09:26:24;6.77;;;6.07;;
8632;SDS011;4354;49.832;10.746;2023-02-28T09:29:04;7.43;;;6.23;;
8632;SDS011;4354;49.832;10.746;2023-02-28T09:31:31;7.17;;;6.47;;
8632;SDS011;4354;49.832;10.746;2023-02-28T09:33:58;10.17;;;7.33;;
8632;SDS011;4354;49.832;10.746;2023-02-28T09:36:26;10.27;;;7.43;;
8632;SDS011;4354;49.832;10.746;2023-02-28T09:39:09;8.70;;;6.90;;
8632;SDS011;4354;49.832;10.746;2023-02-28T09:41:37;7.60;;;6.80;;
8632;SDS011;4354;49.832;10.746;2023-02-28T09:44:15;8.50;;;7.60;;
8632;SDS011;4354;49.832;10.746;2023-02-28T09:46:59;11.30;;;7.60;;
8632;SDS011;4354;49.832;10.746;2023-02-28T09:49:38;10.83;;;6.70;;
8632;SDS011;4354;49.832;10.746;2023-02-28T09:52:26;9.33;;;7.23;;
8632;SDS011;4354;49.832;10.746;2023-02-28T09:54:59;10.40;;;7.07;;
8632;SDS011;4354;49.832;10.746;2023-02-28T09:57:46;8.43;;;7.03;;
8632;SDS011;4354;49.832;10.746;2023-02-28T10:00:14;9.67;;;7.37;;
8632;SDS011;4354;49.832;10.746;2023-02-28T10:06:08;12.63;;;7.57;;
8632;SDS011;4354;49.832;10.746;2023-02-28T10:11:23;10.33;;;7.23;;
8632;SDS011;4354;49.832;10.746;2023-02-28T10:13:55;10.57;;;7.33;;
8632;SDS011;4354;49.832;10.746;2023-02-28T10:19:04;9.30;;;7.40;;
8632;SDS011;4354;49.832;10.746;2023-02-28T10:21:41;12.60;;;8.13;;
8632;SDS011;4354;49.832;10.746;2023-02-28T10:27:14;12.53;;;8.37;;
8632;SDS011;4354;49.832;10.746;2023-02-28T10:29:44;15.13;;;9.70;;
8632;SDS011;4354;49.832;10.746;2023-02-28T10:32:40;10.40;;;8.00;;
8632;SDS011;4354;49.832;10.746;2023-02-28T10:37:40;9.33;;;6.93;;
8632;SDS011;4354;49.832;10.746;2023-02-28T10:40:28;12.27;;;8.97;;
8632;SDS011;4354;49.832;10.746;2023-02-28T10:43:03;9.67;;;7.37;;
8632;SDS011;4354;49.832;10.746;2023-02-28T10:45:35;10.40;;;8.57;;
8632;SDS011;4354;49.832;10.746;2023-02-28T10:50:54;9.73;;;6.77;;
8632;SDS011;4354;49.832;10.746;2023-02-28T10:55:57;8.83;;;6.10;;
8632;SDS011;4354;49.832;10.746;2023-02-28T10:58:46;8.90;;;6.83;;
8632;SDS011;4354;49.832;10.746;2023-02-28T11:03:51;7.67;;;6.37;;
8632;SDS011;4354;49.832;10.746;2023-02-28T11:06:22;9.20;;;6.57;;
8632;SDS011;4354;49.832;10.746;2023-02-28T11:08:57;9.90;;;7.47;;
8632;SDS011;4354;49.832;10.746;2023-02-28T11:11:28;8.63;;;6.93;;
8632;SDS011;4354;49.832;10.746;2023-02-28T11:14:03;9.00;;;7.07;;
8632;SDS011;4354;49.832;10.746;2023-02-28T11:16:32;10.00;;;7.40;;
8632;SDS011;4354;49.832;10.746;2023-02-28T11:19:01;10.57;;;7.10;;
8632;SDS011;4354;49.832;10.746;2023-02-28T11:21:31;8.87;;;7.10;;
8632;SDS011;4354;49.832;10.746;2023-02-28T11:24:02;7.83;;;6.63;;
8632;SDS011;4354;49.832;10.746;2023-02-28T11:29:14;7.23;;;6.53;;
8632;SDS011;4354;49.832;10.746;2023-02-28T11:32:04;8.03;;;5.53;;
8632;SDS011;4354;49.832;10.746;2023-02-28T11:34:38;7.53;;;6.80;;
8632;SDS011;4354;49.832;10.746;2023-02-28T11:37:18;7.90;;;6.87;;
8632;SDS011;4354;49.832;10.746;2023-02-28T11:39:45;8.10;;;6.63;;
8632;SDS011;4354;49.832;10.746;2023-02-28T11:47:46;8.50;;;7.63;;
8632;SDS011;4354;49.832;10.746;2023-02-28T11:53:10;8.23;;;6.93;;
8632;SDS011;4354;49.832;10.746;2023-02-28T11:56:01;8.40;;;6.57;;
8632;SDS011;4354;49.832;10.746;2023-02-28T12:03:58;7.60;;;6.90;;
8632;SDS011;4354;49.832;10.746;2023-02-28T12:06:50;7.60;;;6.70;;
8632;SDS011;4354;49.832;10.746;2023-02-28T12:12:48;9.97;;;7.57;;
8632;SDS011;4354;49.832;10.746;2023-02-28T12:18:26;7.60;;;6.63;;
8632;SDS011;4354;49.832;10.746;2023-02-28T12:21:51;7.97;;;7.07;;
8632;SDS011;4354;49.832;10.746;2023-02-28T12:24:17;10.43;;;7.00;;
8632;SDS011;4354;49.832;10.746;2023-02-28T12:27:09;8.47;;;7.20;;
8632;SDS011;4354;49.832;10.746;2023-02-28T12:29:58;8.37;;;6.60;;
8632;SDS011;4354;49.832;10.746;2023-02-28T12:32:44;6.87;;;6.00;;
8632;SDS011;4354;49.832;10.746;2023-02-28T12:35:19;10.37;;;6.97;;
8632;SDS011;4354;49.832;10.746;2023-02-28T12:37:56;9.10;;;6.30;;
8632;SDS011;4354;49.832;10.746;2023-02-28T12:40:42;7.97;;;7.17;;
8632;SDS011;4354;49.832;10.746;2023-02-28T12:43:27;8.30;;;6.90;;
8632;SDS011;4354;49.832;10.746;2023-02-28T12:46:10;8.47;;;7.13;;
8632;SDS011;4354;49.832;10.746;2023-02-28T12:48:50;7.90;;;7.10;;
8632;SDS011;4354;49.832;10.746;2023-02-28T12:51:22;7.33;;;6.37;;
8632;SDS011;4354;49.832;10.746;2023-02-28T12:59:23;7.73;;;6.97;;
8632;SDS011;4354;49.832;10.746;2023-02-28T13:04:40;6.90;;;6.23;;
8632;SDS011;4354;49.832;10.746;2023-02-28T13:09:51;9.00;;;6.70;;
8632;SDS011;4354;49.832;10.746;2023-02-28T13:12:23;8.37;;;7.10;;
8632;SDS011;4354;49.832;10.746;2023-02-28T13:14:51;9.87;;;7.57;;
8632;SDS011;4354;49.832;10.746;2023-02-28T13:17:51;8.43;;;7.40;;
8632;SDS011;4354;49.832;10.746;2023-02-28T13:20:20;8.23;;;7.10;;
8632;SDS011;4354;49.832;10.746;2023-02-28T13:22:55;8.13;;;7.33;;
8632;SDS011;4354;49.832;10.746;2023-02-28T13:28:00;7.03;;;6.33;;
8632;SDS011;4354;49.832;10.746;2023-02-28T13:33:30;8.37;;;7.27;;
8632;SDS011;4354;49.832;10.746;2023-02-28T13:38:35;10.03;;;7.27;;
8632;SDS011;4354;49.832;10.746;2023-02-28T13:46:31;8.47;;;6.80;;
8632;SDS011;4354;49.832;10.746;2023-02-28T13:58:04;7.63;;;6.83;;
8632;SDS011;4354;49.832;10.746;2023-02-28T14:03:07;8.57;;;6.43;;
8632;SDS011;4354;49.832;10.746;2023-02-28T14:08:35;8.50;;;7.43;;
8632;SDS011;4354;49.832;10.746;2023-02-28T14:11:04;8.17;;;6.87;;
8632;SDS011;4354;49.832;10.746;2023-02-28T14:13:41;8.63;;;6.50;;
8632;SDS011;4354;49.832;10.746;2023-02-28T14:16:14;10.20;;;7.70;;
8632;SDS011;4354;49.832;10.746;2023-02-28T14:18:50;9.83;;;7.40;;
8632;SDS011;4354;49.832;10.746;2023-02-28T14:21:31;9.40;;;7.33;;
8632;SDS011;4354;49.832;10.746;2023-02-28T14:29:34;8.57;;;7.03;;
8632;SDS011;4354;49.832;10.746;2023-02-28T14:37:27;7.10;;;6.40;;
8632;SDS011;4354;49.832;10.746;2023-02-28T14:39:57;9.10;;;6.80;;
8632;SDS011;4354;49.832;10.746;2023-02-28T14:42:32;7.77;;;6.90;;
8632;SDS011;4354;49.832;10.746;2023-02-28T14:45:06;8.53;;;6.93;;
8632;SDS011;4354;49.832;10.746;2023-02-28T14:47:43;10.37;;;7.13;;
8632;SDS011;4354;49.832;10.746;2023-02-28T14:50:20;9.07;;;6.70;;
8632;SDS011;4354;49.832;10.746;2023-02-28T14:52:53;9.17;;;7.77;;
8632;SDS011;4354;49.832;10.746;2023-02-28T14:55:36;10.57;;;7.57;;
8632;SDS011;4354;49.832;10.746;2023-02-28T14:58:04;9.43;;;7.53;;
8632;SDS011;4354;49.832;10.746;2023-02-28T15:00:37;8.83;;;7.30;;
8632;SDS011;4354;49.832;10.746;2023-02-28T15:03:21;9.30;;;7.70;;
8632;SDS011;4354;49.832;10.746;2023-02-28T15:06:03;15.03;;;9.77;;
8632;SDS011;4354;49.832;10.746;2023-02-28T15:08:41;13.67;;;10.30;;
8632;SDS011;4354;49.832;10.746;2023-02-28T15:11:08;11.37;;;8.27;;
8632;SDS011;4354;49.832;10.746;2023-02-28T15:13:53;10.33;;;8.53;;
8632;SDS011;4354;49.832;10.746;2023-02-28T15:16:24;10.57;;;7.77;;
8632;SDS011;4354;49.832;10.746;2023-02-28T15:18:56;8.77;;;7.87;;
8632;SDS011;4354;49.832;10.746;2023-02-28T15:21:27;12.17;;;8.57;;
8632;SDS011;4354;49.832;10.746;2023-02-28T15:24:04;9.20;;;7.50;;
8632;SDS011;4354;49.832;10.746;2023-02-28T15:26:34;9.47;;;7.83;;
8632;SDS011;4354;49.832;10.746;2023-02-28T15:29:06;10.57;;;8.33;;
8632;SDS011;4354;49.832;10.746;2023-02-28T15:32:00;11.50;;;8.00;;
8632;SDS011;4354;49.832;10.746;2023-02-28T15:34:29;11.37;;;7.97;;
8632;SDS011;4354;49.832;10.746;2023-02-28T15:37:26;7.70;;;6.90;;
8632;SDS011;4354;49.832;10.746;2023-02-28T15:40:16;8.20;;;7.20;;
8632;SDS011;4354;49.832;10.746;2023-02-28T15:42:57;8.73;;;7.17;;
8632;SDS011;4354;49.832;10.746;2023-02-28T15:50:55;8.43;;;6.93;;
8632;SDS011;4354;49.832;10.746;2023-02-28T15:53:29;9.83;;;7.17;;
8632;SDS011;4354;49.832;10.746;2023-02-28T15:56:13;7.67;;;6.43;;
8632;SDS011;4354;49.832;10.746;2023-02-28T15:58:48;8.83;;;7.17;;
8632;SDS011;4354;49.832;10.746;2023-02-28T16:01:17;10.83;;;7.33;;
8632;SDS011;4354;49.832;10.746;2023-02-28T16:03:53;9.77;;;8.03;;
8632;SDS011;4354;49.832;10.746;2023-02-28T16:06:23;7.83;;;6.83;;
8632;SDS011;4354;49.832;10.746;2023-02-28T16:08:51;10.10;;;7.50;;
8632;SDS011;4354;49.832;10.746;2023-02-28T16:11:20;8.10;;;7.30;;
8632;SDS011;4354;49.832;10.746;2023-02-28T16:13:48;11.03;;;7.97;;
8632;SDS011;4354;49.832;10.746;2023-02-28T16:16:17;14.40;;;8.77;;
8632;SDS011;4354;49.832;10.746;2023-02-28T16:18:45;15.30;;;10.40;;
8632;SDS011;4354;49.832;10.746;2023-02-28T16:21:12;11.73;;;7.33;;
8632;SDS011;4354;49.832;10.746;2023-02-28T16:23:39;8.83;;;7.10;;
8632;SDS011;4354;49.832;10.746;2023-02-28T16:26:06;8.87;;;6.87;;
8632;SDS011;4354;49.832;10.746;2023-02-28T16:28:35;9.13;;;7.33;;
8632;SDS011;4354;49.832;10.746;2023-02-28T16:31:04;9.80;;;7.47;;
8632;SDS011;4354;49.832;10.746;2023-02-28T16:33:33;11.10;;;6.77;;
8632;SDS011;4354;49.832;10.746;2023-02-28T16:36:00;8.83;;;6.93;;
8632;SDS011;4354;49.832;10.746;2023-02-28T16:38:27;8.73;;;7.07;;
8632;SDS011;4354;49.832;10.746;2023-02-28T16:40:55;8.43;;;6.83;;
8632;SDS011;4354;49.832;10.746;2023-02-28T16:43:25;8.00;;;6.83;;
8632;SDS011;4354;49.832;10.746;2023-02-28T16:45:56;9.77;;;6.40;;
8632;SDS011;4354;49.832;10.746;2023-02-28T16:48:27;9.90;;;6.97;;
8632;SDS011;4354;49.832;10.746;2023-02-28T16:50:54;10.40;;;7.20;;
8632;SDS011;4354;49.832;10.746;2023-02-28T16:53:21;8.87;;;6.60;;
8632;SDS011;4354;49.832;10.746;2023-02-28T16:55:47;8.93;;;6.43;;
8632;SDS011;4354;49.832;10.746;2023-02-28T16:58:17;9.73;;;7.10;;
8632;SDS011;4354;49.832;10.746;2023-02-28T17:00:45;9.53;;;6.80;;
8632;SDS011;4354;49.832;10.746;2023-02-28T17:03:19;9.23;;;6.50;;
8632;SDS011;4354;49.832;10.746;2023-02-28T17:05:59;10.47;;;7.40;;
8632;SDS011;4354;49.832;10.746;2023-02-28T17:08:26;8.87;;;6.80;;
8632;SDS011;4354;49.832;10.746;2023-02-28T17:10:55;10.47;;;7.07;;
8632;SDS011;4354;49.832;10.746;2023-02-28T17:13:22;11.73;;;7.10;;
8632;SDS011;4354;49.832;10.746;2023-02-28T17:15:49;8.93;;;7.13;;
8632;SDS011;4354;49.832;10.746;2023-02-28T17:18:17;9.23;;;6.63;;
8632;SDS011;4354;49.832;10.746;2023-02-28T17:20:45;9.30;;;7.13;;
8632;SDS011;4354;49.832;10.746;2023-02-28T17:23:12;13.27;;;9.67;;
8632;SDS011;4354;49.832;10.746;2023-02-28T17:25:39;16.37;;;10.77;;
8632;SDS011;4354;49.832;10.746;2023-02-28T17:28:06;17.83;;;12.90;;
8632;SDS011;4354;49.832;10.746;2023-02-28T17:30:33;13.17;;;10.97;;
8632;SDS011;4354;49.832;10.746;2023-02-28T17:33:01;10.73;;;8.53;;
8632;SDS011;4354;49.832;10.746;2023-02-28T17:35:29;8.73;;;7.10;;
8632;SDS011;4354;49.832;10.746;2023-02-28T17:37:56;11.90;;;7.57;;
8632;SDS011;4354;49.832;10.746;2023-02-28T17:40:23;11.30;;;8.37;;
8632;SDS011;4354;49.832;10.746;2023-02-28T17:42:50;8.20;;;7.17;;
8632;SDS011;4354;49.832;10.746;2023-02-28T17:45:21;9.30;;;7.50;;